首页
METAR-TAF:

METAR-TAF

机场 :

弗洛里亚诺波利斯, 圣卡塔琳娜州, 巴西

纬度: 27-40S, 经度: 048-33W, 海拔: 5米

当前天气观测

该预报发布于1小时和8分钟前的14:00 UTC
风速6节,风向东转东南
温度 26°C
湿度 65%
气压 1016 hPa
能见度10公里或以上
散云层高于3000英尺

METAR: SBFL 201400Z 12006KT 9999 SCT030 26/19 Q1016

时间: 13:08 (15:08 UTC)

预报

该预报发布于6小时和8分钟前的09:00 UTC
预报有效从20日的 12点(UTC)到 21日的 12点(UTC)
风速5节,风向南转南东
能见度10公里或以上
散云层高于4000英尺
成为
从 20日的 16点(UTC)到 20日的 18点(UTC)
风速7节,风向
多云层高于2500英尺
成为
从 21日的 00点(UTC)到 21日的 02点(UTC)
散云层高于3000英尺
成为
从 21日的 04点(UTC)到 21日的 08点(UTC)
能見度: 0100
散云层高于4000英尺

TAF: SBFL 200900Z 2012/2112 15005KT 9999 SCT040 TX28/2017Z TN23/2108Z BECMG 2016/2018 08007KT BKN025 BECMG 2100/2102 SCT030 BECMG 2104/2108 0100 6KT SCT040 RMK PDV

超过4000个机场的气象观测和天气预报(METAR&TAF报告)。

可查询的气象台以黄色和红色小点在地图上表示。

将鼠标移到小点上方,可查看气象台名称。

然后点击查看天气观测和预报。

如需切换地图:点击带黑十字的绿色按钮放大地图;点击带横线的绿色按钮缩小地图;或者点击绿色箭头查看邻近地区的地图。


METAR-TAF: